sensor_id;sensor_type;location;lat;lon;timestamp;P1;durP1;ratioP1;P2;durP2;ratioP2
81801;SDS011;71199;52.490;5.448;2023-07-30T00:01:14;17.43;;;4.77;;
81801;SDS011;71199;52.490;5.448;2023-07-30T00:03:39;14.63;;;4.20;;
81801;SDS011;71199;52.490;5.448;2023-07-30T00:06:04;22.93;;;4.40;;
81801;SDS011;71199;52.490;5.448;2023-07-30T00:08:30;12.38;;;3.60;;
81801;SDS011;71199;52.490;5.448;2023-07-30T00:10:58;19.73;;;3.70;;
81801;SDS011;71199;52.490;5.448;2023-07-30T00:13:24;16.55;;;4.18;;
81801;SDS011;71199;52.490;5.448;2023-07-30T00:15:50;22.13;;;5.07;;
81801;SDS011;71199;52.490;5.448;2023-07-30T00:18:15;17.23;;;4.38;;
81801;SDS011;71199;52.490;5.448;2023-07-30T00:20:41;19.10;;;4.13;;
81801;SDS011;71199;52.490;5.448;2023-07-30T00:23:07;23.83;;;4.93;;
81801;SDS011;71199;52.490;5.448;2023-07-30T00:25:33;18.63;;;3.97;;
81801;SDS011;71199;52.490;5.448;2023-07-30T00:27:58;17.15;;;4.95;;
81801;SDS011;71199;52.490;5.448;2023-07-30T00:30:23;17.85;;;4.38;;
81801;SDS011;71199;52.490;5.448;2023-07-30T00:32:49;16.27;;;4.00;;
81801;SDS011;71199;52.490;5.448;2023-07-30T00:35:14;17.35;;;4.30;;
81801;SDS011;71199;52.490;5.448;2023-07-30T00:37:40;16.80;;;4.15;;
81801;SDS011;71199;52.490;5.448;2023-07-30T00:40:05;17.67;;;4.17;;
81801;SDS011;71199;52.490;5.448;2023-07-30T00:42:31;20.38;;;3.95;;
81801;SDS011;71199;52.490;5.448;2023-07-30T00:44:57;11.93;;;4.10;;
81801;SDS011;71199;52.490;5.448;2023-07-30T00:47:22;13.73;;;3.53;;
81801;SDS011;71199;52.490;5.448;2023-07-30T00:49:48;23.80;;;4.53;;
81801;SDS011;71199;52.490;5.448;2023-07-30T00:52:18;17.00;;;4.15;;
81801;SDS011;71199;52.490;5.448;2023-07-30T00:54:45;14.27;;;4.40;;
81801;SDS011;71199;52.490;5.448;2023-07-30T00:57:11;21.27;;;4.63;;
81801;SDS011;71199;52.490;5.448;2023-07-30T00:59:37;21.23;;;4.60;;
81801;SDS011;71199;52.490;5.448;2023-07-30T01:02:02;18.95;;;3.65;;
81801;SDS011;71199;52.490;5.448;2023-07-30T01:04:29;16.02;;;3.78;;
81801;SDS011;71199;52.490;5.448;2023-07-30T01:06:55;18.75;;;4.47;;
81801;SDS011;71199;52.490;5.448;2023-07-30T01:09:20;23.98;;;4.03;;
81801;SDS011;71199;52.490;5.448;2023-07-30T01:11:46;14.20;;;4.15;;
81801;SDS011;71199;52.490;5.448;2023-07-30T01:14:13;13.75;;;3.53;;
81801;SDS011;71199;52.490;5.448;2023-07-30T01:16:39;21.20;;;4.32;;
81801;SDS011;71199;52.490;5.448;2023-07-30T01:19:05;14.02;;;3.78;;
81801;SDS011;71199;52.490;5.448;2023-07-30T01:21:32;18.77;;;4.15;;
81801;SDS011;71199;52.490;5.448;2023-07-30T01:24:01;16.40;;;4.57;;
81801;SDS011;71199;52.490;5.448;2023-07-30T01:27:01;14.25;;;4.10;;
81801;SDS011;71199;52.490;5.448;2023-07-30T01:29:22;19.48;;;4.78;;
81801;SDS011;71199;52.490;5.448;2023-07-30T01:31:56;15.57;;;4.18;;
81801;SDS011;71199;52.490;5.448;2023-07-30T01:34:25;20.27;;;3.67;;
81801;SDS011;71199;52.490;5.448;2023-07-30T01:36:53;18.92;;;4.45;;
81801;SDS011;71199;52.490;5.448;2023-07-30T01:39:19;20.05;;;3.95;;
81801;SDS011;71199;52.490;5.448;2023-07-30T01:41:45;19.33;;;4.00;;
81801;SDS011;71199;52.490;5.448;2023-07-30T01:44:11;18.08;;;4.68;;
81801;SDS011;71199;52.490;5.448;2023-07-30T01:46:36;20.65;;;4.28;;
81801;SDS011;71199;52.490;5.448;2023-07-30T01:49:02;21.00;;;4.60;;
81801;SDS011;71199;52.490;5.448;2023-07-30T01:51:27;29.03;;;4.93;;
81801;SDS011;71199;52.490;5.448;2023-07-30T01:53:52;16.17;;;3.90;;
81801;SDS011;71199;52.490;5.448;2023-07-30T01:56:18;20.63;;;4.90;;
81801;SDS011;71199;52.490;5.448;2023-07-30T01:58:43;18.52;;;5.35;;
81801;SDS011;71199;52.490;5.448;2023-07-30T02:01:08;22.80;;;4.10;;
81801;SDS011;71199;52.490;5.448;2023-07-30T02:03:34;18.40;;;4.85;;
81801;SDS011;71199;52.490;5.448;2023-07-30T02:05:59;26.20;;;5.27;;
81801;SDS011;71199;52.490;5.448;2023-07-30T02:08:25;27.42;;;6.07;;
81801;SDS011;71199;52.490;5.448;2023-07-30T02:10:56;22.53;;;5.67;;
81801;SDS011;71199;52.490;5.448;2023-07-30T02:13:23;16.42;;;4.32;;
81801;SDS011;71199;52.490;5.448;2023-07-30T02:15:48;15.43;;;4.10;;
81801;SDS011;71199;52.490;5.448;2023-07-30T02:18:14;21.30;;;4.83;;
81801;SDS011;71199;52.490;5.448;2023-07-30T02:20:39;20.57;;;4.13;;
81801;SDS011;71199;52.490;5.448;2023-07-30T02:23:04;21.73;;;4.60;;
81801;SDS011;71199;52.490;5.448;2023-07-30T02:25:30;20.23;;;4.22;;
81801;SDS011;71199;52.490;5.448;2023-07-30T02:27:55;16.80;;;4.53;;
81801;SDS011;71199;52.490;5.448;2023-07-30T02:30:21;30.15;;;5.88;;
81801;SDS011;71199;52.490;5.448;2023-07-30T02:32:46;18.93;;;5.13;;
81801;SDS011;71199;52.490;5.448;2023-07-30T02:35:12;17.70;;;4.20;;
81801;SDS011;71199;52.490;5.448;2023-07-30T02:37:37;15.73;;;4.13;;
81801;SDS011;71199;52.490;5.448;2023-07-30T02:40:03;17.63;;;3.97;;
81801;SDS011;71199;52.490;5.448;2023-07-30T02:42:30;15.98;;;4.32;;
81801;SDS011;71199;52.490;5.448;2023-07-30T02:44:56;20.77;;;4.40;;
81801;SDS011;71199;52.490;5.448;2023-07-30T02:47:21;23.25;;;5.15;;
81801;SDS011;71199;52.490;5.448;2023-07-30T02:49:46;14.73;;;4.00;;
81801;SDS011;71199;52.490;5.448;2023-07-30T02:52:12;17.63;;;4.03;;
81801;SDS011;71199;52.490;5.448;2023-07-30T02:54:37;14.07;;;3.90;;
81801;SDS011;71199;52.490;5.448;2023-07-30T02:57:03;26.77;;;4.78;;
81801;SDS011;71199;52.490;5.448;2023-07-30T02:59:28;16.95;;;4.20;;
81801;SDS011;71199;52.490;5.448;2023-07-30T03:01:54;18.57;;;4.13;;
81801;SDS011;71199;52.490;5.448;2023-07-30T03:04:19;19.83;;;4.70;;
81801;SDS011;71199;52.490;5.448;2023-07-30T03:06:44;20.70;;;4.67;;
81801;SDS011;71199;52.490;5.448;2023-07-30T03:09:10;21.60;;;4.63;;
81801;SDS011;71199;52.490;5.448;2023-07-30T03:11:35;19.07;;;4.30;;
81801;SDS011;71199;52.490;5.448;2023-07-30T03:14:00;26.50;;;5.23;;
81801;SDS011;71199;52.490;5.448;2023-07-30T03:16:26;24.83;;;5.17;;
81801;SDS011;71199;52.490;5.448;2023-07-30T03:18:51;19.95;;;4.35;;
81801;SDS011;71199;52.490;5.448;2023-07-30T03:21:16;14.97;;;4.57;;
81801;SDS011;71199;52.490;5.448;2023-07-30T03:23:42;20.97;;;4.83;;
81801;SDS011;71199;52.490;5.448;2023-07-30T03:26:09;22.38;;;5.72;;
81801;SDS011;71199;52.490;5.448;2023-07-30T03:28:35;22.50;;;4.28;;
81801;SDS011;71199;52.490;5.448;2023-07-30T03:31:00;17.57;;;4.70;;
81801;SDS011;71199;52.490;5.448;2023-07-30T03:33:25;16.43;;;4.47;;
81801;SDS011;71199;52.490;5.448;2023-07-30T03:35:51;19.90;;;4.23;;
81801;SDS011;71199;52.490;5.448;2023-07-30T03:38:16;23.97;;;5.27;;
81801;SDS011;71199;52.490;5.448;2023-07-30T03:40:41;20.80;;;4.20;;
81801;SDS011;71199;52.490;5.448;2023-07-30T03:43:07;19.80;;;4.80;;
81801;SDS011;71199;52.490;5.448;2023-07-30T03:45:32;21.83;;;5.03;;
81801;SDS011;71199;52.490;5.448;2023-07-30T03:47:58;23.98;;;4.30;;
81801;SDS011;71199;52.490;5.448;2023-07-30T03:50:23;22.63;;;5.10;;
81801;SDS011;71199;52.490;5.448;2023-07-30T03:52:48;21.00;;;5.22;;
81801;SDS011;71199;52.490;5.448;2023-07-30T03:55:14;20.33;;;4.10;;
81801;SDS011;71199;52.490;5.448;2023-07-30T03:57:40;25.40;;;5.25;;
81801;SDS011;71199;52.490;5.448;2023-07-30T04:00:05;22.07;;;5.27;;
81801;SDS011;71199;52.490;5.448;2023-07-30T04:02:32;21.45;;;4.75;;
81801;SDS011;71199;52.490;5.448;2023-07-30T04:04:57;19.67;;;4.57;;
81801;SDS011;71199;52.490;5.448;2023-07-30T04:07:22;23.73;;;5.43;;
81801;SDS011;71199;52.490;5.448;2023-07-30T04:09:48;22.20;;;4.97;;
81801;SDS011;71199;52.490;5.448;2023-07-30T04:12:13;23.97;;;4.53;;
81801;SDS011;71199;52.490;5.448;2023-07-30T04:14:38;21.97;;;4.27;;
81801;SDS011;71199;52.490;5.448;2023-07-30T04:17:04;30.47;;;5.33;;
81801;SDS011;71199;52.490;5.448;2023-07-30T04:19:29;19.13;;;4.72;;
81801;SDS011;71199;52.490;5.448;2023-07-30T04:21:55;22.43;;;4.70;;
81801;SDS011;71199;52.490;5.448;2023-07-30T04:24:21;21.42;;;4.32;;
81801;SDS011;71199;52.490;5.448;2023-07-30T04:26:46;28.45;;;5.63;;
81801;SDS011;71199;52.490;5.448;2023-07-30T04:29:12;24.50;;;5.90;;
81801;SDS011;71199;52.490;5.448;2023-07-30T04:31:39;17.77;;;4.03;;
81801;SDS011;71199;52.490;5.448;2023-07-30T04:34:04;21.38;;;4.57;;
81801;SDS011;71199;52.490;5.448;2023-07-30T04:36:29;22.40;;;4.90;;
81801;SDS011;71199;52.490;5.448;2023-07-30T04:38:55;16.87;;;3.80;;
81801;SDS011;71199;52.490;5.448;2023-07-30T04:41:20;29.63;;;5.35;;
81801;SDS011;71199;52.490;5.448;2023-07-30T04:43:46;20.65;;;5.20;;
81801;SDS011;71199;52.490;5.448;2023-07-30T04:46:11;13.88;;;4.50;;
81801;SDS011;71199;52.490;5.448;2023-07-30T04:48:36;23.10;;;7.00;;
81801;SDS011;71199;52.490;5.448;2023-07-30T04:51:02;14.73;;;4.35;;
81801;SDS011;71199;52.490;5.448;2023-07-30T04:53:28;22.13;;;4.53;;
81801;SDS011;71199;52.490;5.448;2023-07-30T04:55:56;13.80;;;3.47;;
81801;SDS011;71199;52.490;5.448;2023-07-30T04:58:22;14.07;;;4.22;;
81801;SDS011;71199;52.490;5.448;2023-07-30T05:00:48;20.02;;;4.13;;
81801;SDS011;71199;52.490;5.448;2023-07-30T05:03:14;23.98;;;4.75;;
81801;SDS011;71199;52.490;5.448;2023-07-30T05:05:39;13.55;;;3.58;;
81801;SDS011;71199;52.490;5.448;2023-07-30T05:08:05;16.50;;;4.18;;
81801;SDS011;71199;52.490;5.448;2023-07-30T05:10:30;15.18;;;3.92;;
81801;SDS011;71199;52.490;5.448;2023-07-30T05:12:56;16.60;;;3.92;;
81801;SDS011;71199;52.490;5.448;2023-07-30T05:15:21;21.97;;;5.07;;
81801;SDS011;71199;52.490;5.448;2023-07-30T05:17:46;19.20;;;4.27;;
81801;SDS011;71199;52.490;5.448;2023-07-30T05:20:12;17.07;;;3.40;;
81801;SDS011;71199;52.490;5.448;2023-07-30T05:22:37;14.63;;;4.10;;
81801;SDS011;71199;52.490;5.448;2023-07-30T05:25:03;18.03;;;4.17;;
81801;SDS011;71199;52.490;5.448;2023-07-30T05:27:28;19.63;;;4.75;;
81801;SDS011;71199;52.490;5.448;2023-07-30T05:29:56;18.02;;;4.10;;
81801;SDS011;71199;52.490;5.448;2023-07-30T05:32:21;16.05;;;3.38;;
81801;SDS011;71199;52.490;5.448;2023-07-30T05:34:47;17.13;;;3.77;;
81801;SDS011;71199;52.490;5.448;2023-07-30T05:37:12;15.07;;;3.50;;
81801;SDS011;71199;52.490;5.448;2023-07-30T05:39:37;14.33;;;3.63;;
81801;SDS011;71199;52.490;5.448;2023-07-30T05:42:03;22.03;;;3.97;;
81801;SDS011;71199;52.490;5.448;2023-07-30T05:44:28;20.98;;;3.30;;
81801;SDS011;71199;52.490;5.448;2023-07-30T05:46:54;23.88;;;8.50;;
81801;SDS011;71199;52.490;5.448;2023-07-30T05:49:19;23.02;;;7.70;;
81801;SDS011;71199;52.490;5.448;2023-07-30T05:51:45;15.25;;;4.07;;
81801;SDS011;71199;52.490;5.448;2023-07-30T05:54:10;15.33;;;5.10;;
81801;SDS011;71199;52.490;5.448;2023-07-30T05:56:36;22.58;;;3.85;;
81801;SDS011;71199;52.490;5.448;2023-07-30T05:59:01;13.00;;;3.43;;
81801;SDS011;71199;52.490;5.448;2023-07-30T06:01:27;11.87;;;3.30;;
81801;SDS011;71199;52.490;5.448;2023-07-30T06:03:52;12.07;;;3.70;;
81801;SDS011;71199;52.490;5.448;2023-07-30T06:06:18;14.70;;;3.20;;
81801;SDS011;71199;52.490;5.448;2023-07-30T06:08:44;15.35;;;4.05;;
81801;SDS011;71199;52.490;5.448;2023-07-30T06:11:10;17.53;;;3.30;;
81801;SDS011;71199;52.490;5.448;2023-07-30T06:13:35;17.63;;;4.10;;
81801;SDS011;71199;52.490;5.448;2023-07-30T06:16:02;16.95;;;3.97;;
81801;SDS011;71199;52.490;5.448;2023-07-30T06:18:27;13.82;;;3.67;;
81801;SDS011;71199;52.490;5.448;2023-07-30T06:20:52;20.57;;;4.33;;
81801;SDS011;71199;52.490;5.448;2023-07-30T06:23:18;13.20;;;3.67;;
81801;SDS011;71199;52.490;5.448;2023-07-30T06:25:43;19.83;;;3.23;;
81801;SDS011;71199;52.490;5.448;2023-07-30T06:28:08;17.27;;;3.70;;
81801;SDS011;71199;52.490;5.448;2023-07-30T06:30:34;16.67;;;4.50;;
81801;SDS011;71199;52.490;5.448;2023-07-30T06:33:01;14.45;;;4.65;;
81801;SDS011;71199;52.490;5.448;2023-07-30T06:35:27;15.65;;;3.85;;
81801;SDS011;71199;52.490;5.448;2023-07-30T06:37:52;18.73;;;3.95;;
81801;SDS011;71199;52.490;5.448;2023-07-30T06:40:17;14.73;;;3.83;;
81801;SDS011;71199;52.490;5.448;2023-07-30T06:42:43;17.13;;;4.32;;
81801;SDS011;71199;52.490;5.448;2023-07-30T06:45:08;17.27;;;4.28;;
81801;SDS011;71199;52.490;5.448;2023-07-30T06:47:34;13.32;;;3.85;;
81801;SDS011;71199;52.490;5.448;2023-07-30T06:50:00;11.07;;;3.57;;
81801;SDS011;71199;52.490;5.448;2023-07-30T06:52:25;21.30;;;4.23;;
81801;SDS011;71199;52.490;5.448;2023-07-30T06:54:50;17.07;;;4.53;;
81801;SDS011;71199;52.490;5.448;2023-07-30T06:57:16;15.60;;;4.60;;
81801;SDS011;71199;52.490;5.448;2023-07-30T06:59:41;13.10;;;4.28;;
81801;SDS011;71199;52.490;5.448;2023-07-30T07:02:07;20.55;;;4.80;;
81801;SDS011;71199;52.490;5.448;2023-07-30T07:04:32;17.27;;;4.72;;
81801;SDS011;71199;52.490;5.448;2023-07-30T07:06:57;21.08;;;5.00;;
81801;SDS011;71199;52.490;5.448;2023-07-30T07:09:23;21.27;;;5.03;;
81801;SDS011;71199;52.490;5.448;2023-07-30T07:11:48;21.13;;;4.73;;
81801;SDS011;71199;52.490;5.448;2023-07-30T07:14:13;18.40;;;5.47;;
81801;SDS011;71199;52.490;5.448;2023-07-30T07:16:39;13.57;;;4.60;;
81801;SDS011;71199;52.490;5.448;2023-07-30T07:19:04;18.20;;;4.37;;
81801;SDS011;71199;52.490;5.448;2023-07-30T07:21:30;21.80;;;4.82;;
81801;SDS011;71199;52.490;5.448;2023-07-30T07:23:55;26.53;;;8.67;;
81801;SDS011;71199;52.490;5.448;2023-07-30T07:26:20;20.87;;;9.07;;
81801;SDS011;71199;52.490;5.448;2023-07-30T07:28:46;19.13;;;4.67;;
81801;SDS011;71199;52.490;5.448;2023-07-30T07:31:11;18.40;;;4.60;;
81801;SDS011;71199;52.490;5.448;2023-07-30T07:33:36;16.98;;;3.60;;
81801;SDS011;71199;52.490;5.448;2023-07-30T07:36:05;13.52;;;4.25;;
81801;SDS011;71199;52.490;5.448;2023-07-30T07:38:32;19.33;;;4.00;;
81801;SDS011;71199;52.490;5.448;2023-07-30T07:40:58;14.45;;;3.67;;
81801;SDS011;71199;52.490;5.448;2023-07-30T07:43:24;11.73;;;4.00;;
81801;SDS011;71199;52.490;5.448;2023-07-30T07:45:49;27.05;;;4.22;;
81801;SDS011;71199;52.490;5.448;2023-07-30T07:48:14;18.17;;;3.63;;
81801;SDS011;71199;52.490;5.448;2023-07-30T07:50:40;15.87;;;3.53;;
81801;SDS011;71199;52.490;5.448;2023-07-30T07:53:05;7.90;;;3.57;;
81801;SDS011;71199;52.490;5.448;2023-07-30T07:55:30;17.30;;;3.90;;
81801;SDS011;71199;52.490;5.448;2023-07-30T07:57:56;17.63;;;4.83;;
81801;SDS011;71199;52.490;5.448;2023-07-30T08:00:21;9.65;;;3.33;;
81801;SDS011;71199;52.490;5.448;2023-07-30T08:02:47;17.50;;;3.87;;
81801;SDS011;71199;52.490;5.448;2023-07-30T08:05:13;13.95;;;3.95;;
81801;SDS011;71199;52.490;5.448;2023-07-30T08:07:39;17.58;;;4.20;;
81801;SDS011;71199;52.490;5.448;2023-07-30T08:10:04;11.00;;;3.60;;
81801;SDS011;71199;52.490;5.448;2023-07-30T08:12:31;16.00;;;4.38;;
81801;SDS011;71199;52.490;5.448;2023-07-30T08:14:57;13.88;;;3.65;;
81801;SDS011;71199;52.490;5.448;2023-07-30T08:17:23;15.45;;;4.30;;
81801;SDS011;71199;52.490;5.448;2023-07-30T08:19:49;20.98;;;4.20;;
81801;SDS011;71199;52.490;5.448;2023-07-30T08:22:14;21.58;;;4.60;;
81801;SDS011;71199;52.490;5.448;2023-07-30T08:24:40;15.02;;;3.60;;
81801;SDS011;71199;52.490;5.448;2023-07-30T08:27:05;11.07;;;3.27;;
81801;SDS011;71199;52.490;5.448;2023-07-30T08:29:31;15.13;;;3.50;;
81801;SDS011;71199;52.490;5.448;2023-07-30T08:31:56;12.73;;;3.73;;
81801;SDS011;71199;52.490;5.448;2023-07-30T08:34:22;15.43;;;4.05;;
81801;SDS011;71199;52.490;5.448;2023-07-30T08:36:48;14.13;;;3.83;;
81801;SDS011;71199;52.490;5.448;2023-07-30T08:39:13;13.43;;;3.20;;
81801;SDS011;71199;52.490;5.448;2023-07-30T08:41:39;7.88;;;2.72;;
81801;SDS011;71199;52.490;5.448;2023-07-30T08:44:05;12.70;;;4.05;;
81801;SDS011;71199;52.490;5.448;2023-07-30T08:46:30;12.70;;;2.83;;
81801;SDS011;71199;52.490;5.448;2023-07-30T08:48:55;8.00;;;2.53;;
81801;SDS011;71199;52.490;5.448;2023-07-30T08:51:22;13.98;;;2.83;;
81801;SDS011;71199;52.490;5.448;2023-07-30T08:53:49;9.43;;;2.70;;
81801;SDS011;71199;52.490;5.448;2023-07-30T08:56:16;8.60;;;2.95;;
81801;SDS011;71199;52.490;5.448;2023-07-30T08:58:41;12.60;;;2.30;;
81801;SDS011;71199;52.490;5.448;2023-07-30T09:01:08;5.07;;;1.95;;
81801;SDS011;71199;52.490;5.448;2023-07-30T09:03:37;11.82;;;1.95;;
81801;SDS011;71199;52.490;5.448;2023-07-30T09:06:04;4.63;;;1.40;;
81801;SDS011;71199;52.490;5.448;2023-07-30T09:08:29;8.25;;;2.08;;
81801;SDS011;71199;52.490;5.448;2023-07-30T09:10:57;6.97;;;2.00;;
81801;SDS011;71199;52.490;5.448;2023-07-30T09:13:22;5.70;;;2.40;;
81801;SDS011;71199;52.490;5.448;2023-07-30T09:15:48;7.85;;;2.55;;
81801;SDS011;71199;52.490;5.448;2023-07-30T09:18:16;10.45;;;2.72;;
81801;SDS011;71199;52.490;5.448;2023-07-30T09:20:45;10.35;;;2.22;;
81801;SDS011;71199;52.490;5.448;2023-07-30T09:23:11;8.52;;;2.25;;
81801;SDS011;71199;52.490;5.448;2023-07-30T09:25:37;10.07;;;2.03;;
81801;SDS011;71199;52.490;5.448;2023-07-30T09:28:02;7.35;;;2.13;;
81801;SDS011;71199;52.490;5.448;2023-07-30T09:30:28;9.32;;;3.15;;
81801;SDS011;71199;52.490;5.448;2023-07-30T09:32:55;8.15;;;2.45;;
81801;SDS011;71199;52.490;5.448;2023-07-30T09:35:22;9.77;;;2.42;;
81801;SDS011;71199;52.490;5.448;2023-07-30T09:37:50;10.32;;;2.08;;
81801;SDS011;71199;52.490;5.448;2023-07-30T09:40:30;7.55;;;2.30;;
81801;SDS011;71199;52.490;5.448;2023-07-30T09:42:57;9.77;;;2.30;;
81801;SDS011;71199;52.490;5.448;2023-07-30T09:45:23;8.98;;;2.40;;
81801;SDS011;71199;52.490;5.448;2023-07-30T09:47:50;6.95;;;2.15;;
81801;SDS011;71199;52.490;5.448;2023-07-30T09:50:16;12.02;;;2.40;;
81801;SDS011;71199;52.490;5.448;2023-07-30T09:52:42;8.73;;;2.53;;
81801;SDS011;71199;52.490;5.448;2023-07-30T09:55:08;7.95;;;2.20;;
81801;SDS011;71199;52.490;5.448;2023-07-30T10:00:02;7.80;;;2.13;;
81801;SDS011;71199;52.490;5.448;2023-07-30T10:02:28;7.30;;;1.95;;
81801;SDS011;71199;52.490;5.448;2023-07-30T10:04:59;10.75;;;2.35;;
81801;SDS011;71199;52.490;5.448;2023-07-30T10:07:25;8.98;;;2.28;;
81801;SDS011;71199;52.490;5.448;2023-07-30T10:09:54;6.28;;;2.35;;
81801;SDS011;71199;52.490;5.448;2023-07-30T10:12:24;12.00;;;2.40;;
81801;SDS011;71199;52.490;5.448;2023-07-30T10:14:53;7.70;;;2.13;;
81801;SDS011;71199;52.490;5.448;2023-07-30T10:17:19;9.52;;;2.97;;
81801;SDS011;71199;52.490;5.448;2023-07-30T10:19:48;9.13;;;2.10;;
81801;SDS011;71199;52.490;5.448;2023-07-30T10:27:39;7.35;;;2.72;;
81801;SDS011;71199;52.490;5.448;2023-07-30T10:30:18;8.40;;;2.65;;
81801;SDS011;71199;52.490;5.448;2023-07-30T10:35:53;5.57;;;2.03;;
81801;SDS011;71199;52.490;5.448;2023-07-30T10:38:34;10.35;;;2.75;;
81801;SDS011;71199;52.490;5.448;2023-07-30T10:41:00;11.10;;;2.33;;
81801;SDS011;71199;52.490;5.448;2023-07-30T10:43:36;8.65;;;1.95;;
81801;SDS011;71199;52.490;5.448;2023-07-30T10:46:04;9.88;;;2.42;;
81801;SDS011;71199;52.490;5.448;2023-07-30T10:48:37;10.57;;;2.53;;
81801;SDS011;71199;52.490;5.448;2023-07-30T10:51:08;9.20;;;2.25;;
81801;SDS011;71199;52.490;5.448;2023-07-30T10:53:34;6.10;;;1.75;;
81801;SDS011;71199;52.490;5.448;2023-07-30T10:56:02;8.75;;;1.95;;
81801;SDS011;71199;52.490;5.448;2023-07-30T10:58:32;6.13;;;2.22;;
81801;SDS011;71199;52.490;5.448;2023-07-30T11:01:00;9.43;;;2.15;;
81801;SDS011;71199;52.490;5.448;2023-07-30T11:03:27;11.05;;;2.78;;
81801;SDS011;71199;52.490;5.448;2023-07-30T11:05:53;6.65;;;2.15;;
81801;SDS011;71199;52.490;5.448;2023-07-30T11:08:21;7.90;;;1.88;;
81801;SDS011;71199;52.490;5.448;2023-07-30T11:10:57;12.15;;;3.10;;
81801;SDS011;71199;52.490;5.448;2023-07-30T11:13:22;9.82;;;2.60;;
81801;SDS011;71199;52.490;5.448;2023-07-30T11:15:48;10.05;;;2.08;;
81801;SDS011;71199;52.490;5.448;2023-07-30T11:18:13;7.47;;;2.25;;
81801;SDS011;71199;52.490;5.448;2023-07-30T11:20:39;6.70;;;2.45;;
81801;SDS011;71199;52.490;5.448;2023-07-30T11:23:18;9.00;;;2.65;;
81801;SDS011;71199;52.490;5.448;2023-07-30T11:25:50;8.10;;;2.10;;
81801;SDS011;71199;52.490;5.448;2023-07-30T11:28:31;9.70;;;2.17;;
81801;SDS011;71199;52.490;5.448;2023-07-30T11:30:58;5.20;;;2.30;;
81801;SDS011;71199;52.490;5.448;2023-07-30T11:33:25;9.73;;;2.30;;
81801;SDS011;71199;52.490;5.448;2023-07-30T11:35:52;11.60;;;2.17;;
81801;SDS011;71199;52.490;5.448;2023-07-30T11:38:18;10.85;;;2.97;;
81801;SDS011;71199;52.490;5.448;2023-07-30T11:40:45;6.00;;;2.30;;
81801;SDS011;71199;52.490;5.448;2023-07-30T11:43:12;7.75;;;2.25;;
81801;SDS011;71199;52.490;5.448;2023-07-30T11:45:38;8.18;;;2.58;;
81801;SDS011;71199;52.490;5.448;2023-07-30T11:48:10;11.37;;;2.40;;
81801;SDS011;71199;52.490;5.448;2023-07-30T11:50:49;6.32;;;1.95;;
81801;SDS011;71199;52.490;5.448;2023-07-30T11:53:16;8.85;;;2.28;;
81801;SDS011;71199;52.490;5.448;2023-07-30T11:55:43;9.85;;;2.15;;
81801;SDS011;71199;52.490;5.448;2023-07-30T11:58:10;6.53;;;2.05;;
81801;SDS011;71199;52.490;5.448;2023-07-30T12:00:36;8.70;;;2.13;;
81801;SDS011;71199;52.490;5.448;2023-07-30T12:03:03;8.95;;;2.22;;
81801;SDS011;71199;52.490;5.448;2023-07-30T12:05:36;4.93;;;1.98;;
81801;SDS011;71199;52.490;5.448;2023-07-30T12:08:03;8.85;;;2.25;;
81801;SDS011;71199;52.490;5.448;2023-07-30T12:10:44;4.32;;;2.15;;
81801;SDS011;71199;52.490;5.448;2023-07-30T12:13:14;9.15;;;2.30;;
81801;SDS011;71199;52.490;5.448;2023-07-30T12:15:50;8.52;;;1.80;;
81801;SDS011;71199;52.490;5.448;2023-07-30T12:18:16;7.40;;;2.08;;
81801;SDS011;71199;52.490;5.448;2023-07-30T12:20:42;5.55;;;2.05;;
81801;SDS011;71199;52.490;5.448;2023-07-30T12:23:07;9.90;;;2.00;;
81801;SDS011;71199;52.490;5.448;2023-07-30T12:25:32;10.70;;;2.20;;
81801;SDS011;71199;52.490;5.448;2023-07-30T12:27:58;8.15;;;2.38;;
81801;SDS011;71199;52.490;5.448;2023-07-30T12:30:23;6.67;;;2.17;;
81801;SDS011;71199;52.490;5.448;2023-07-30T12:32:51;8.27;;;1.92;;
81801;SDS011;71199;52.490;5.448;2023-07-30T12:35:16;6.55;;;2.28;;
81801;SDS011;71199;52.490;5.448;2023-07-30T12:37:41;8.83;;;2.23;;
81801;SDS011;71199;52.490;5.448;2023-07-30T12:40:07;9.17;;;1.90;;
81801;SDS011;71199;52.490;5.448;2023-07-30T12:42:33;10.02;;;1.90;;
81801;SDS011;71199;52.490;5.448;2023-07-30T12:44:58;6.55;;;1.75;;
81801;SDS011;71199;52.490;5.448;2023-07-30T12:47:23;6.37;;;2.07;;
81801;SDS011;71199;52.490;5.448;2023-07-30T12:49:49;5.23;;;1.73;;
81801;SDS011;71199;52.490;5.448;2023-07-30T12:52:14;10.53;;;2.40;;
81801;SDS011;71199;52.490;5.448;2023-07-30T12:54:39;5.77;;;1.80;;
81801;SDS011;71199;52.490;5.448;2023-07-30T12:57:05;7.40;;;2.42;;
81801;SDS011;71199;52.490;5.448;2023-07-30T12:59:31;9.07;;;1.90;;
81801;SDS011;71199;52.490;5.448;2023-07-30T13:01:56;12.23;;;2.97;;
81801;SDS011;71199;52.490;5.448;2023-07-30T13:04:23;8.70;;;2.67;;
81801;SDS011;71199;52.490;5.448;2023-07-30T13:06:52;10.00;;;2.72;;
81801;SDS011;71199;52.490;5.448;2023-07-30T13:09:18;8.20;;;2.67;;
81801;SDS011;71199;52.490;5.448;2023-07-30T13:11:43;10.50;;;2.30;;
81801;SDS011;71199;52.490;5.448;2023-07-30T13:14:09;7.43;;;1.93;;
81801;SDS011;71199;52.490;5.448;2023-07-30T13:16:34;8.45;;;2.22;;
81801;SDS011;71199;52.490;5.448;2023-07-30T13:18:59;7.53;;;2.50;;
81801;SDS011;71199;52.490;5.448;2023-07-30T13:21:25;8.38;;;2.90;;
81801;SDS011;71199;52.490;5.448;2023-07-30T13:23:51;7.78;;;1.80;;
81801;SDS011;71199;52.490;5.448;2023-07-30T13:26:17;9.65;;;1.92;;
81801;SDS011;71199;52.490;5.448;2023-07-30T13:28:43;6.45;;;2.75;;
81801;SDS011;71199;52.490;5.448;2023-07-30T13:31:09;8.45;;;2.53;;
81801;SDS011;71199;52.490;5.448;2023-07-30T13:33:34;8.18;;;2.50;;
81801;SDS011;71199;52.490;5.448;2023-07-30T13:35:59;8.73;;;1.90;;
81801;SDS011;71199;52.490;5.448;2023-07-30T13:38:25;4.33;;;1.40;;
81801;SDS011;71199;52.490;5.448;2023-07-30T13:40:52;6.20;;;1.63;;
81801;SDS011;71199;52.490;5.448;2023-07-30T13:43:17;7.47;;;2.15;;
81801;SDS011;71199;52.490;5.448;2023-07-30T13:45:42;9.03;;;1.67;;
81801;SDS011;71199;52.490;5.448;2023-07-30T13:48:08;8.55;;;1.63;;
81801;SDS011;71199;52.490;5.448;2023-07-30T13:50:34;7.10;;;1.83;;
81801;SDS011;71199;52.490;5.448;2023-07-30T13:52:59;6.30;;;1.42;;
81801;SDS011;71199;52.490;5.448;2023-07-30T13:55:25;6.43;;;1.50;;
81801;SDS011;71199;52.490;5.448;2023-07-30T13:57:50;10.52;;;1.60;;
81801;SDS011;71199;52.490;5.448;2023-07-30T14:00:15;5.80;;;2.17;;
81801;SDS011;71199;52.490;5.448;2023-07-30T14:02:41;5.82;;;1.73;;
81801;SDS011;71199;52.490;5.448;2023-07-30T14:05:07;5.93;;;1.50;;
81801;SDS011;71199;52.490;5.448;2023-07-30T14:07:33;7.95;;;1.73;;
81801;SDS011;71199;52.490;5.448;2023-07-30T14:09:59;6.50;;;1.70;;
81801;SDS011;71199;52.490;5.448;2023-07-30T14:12:24;5.57;;;1.70;;
81801;SDS011;71199;52.490;5.448;2023-07-30T14:14:49;6.10;;;1.85;;
81801;SDS011;71199;52.490;5.448;2023-07-30T14:17:15;5.07;;;1.60;;
81801;SDS011;71199;52.490;5.448;2023-07-30T14:19:40;4.75;;;1.35;;
81801;SDS011;71199;52.490;5.448;2023-07-30T14:22:06;8.57;;;2.60;;
81801;SDS011;71199;52.490;5.448;2023-07-30T14:24:31;6.05;;;1.88;;
81801;SDS011;71199;52.490;5.448;2023-07-30T14:26:56;6.85;;;1.83;;
81801;SDS011;71199;52.490;5.448;2023-07-30T14:29:22;7.47;;;2.00;;
81801;SDS011;71199;52.490;5.448;2023-07-30T14:31:47;6.25;;;2.30;;
81801;SDS011;71199;52.490;5.448;2023-07-30T14:34:12;7.93;;;1.80;;
81801;SDS011;71199;52.490;5.448;2023-07-30T14:36:38;7.25;;;1.90;;
81801;SDS011;71199;52.490;5.448;2023-07-30T14:39:03;9.02;;;2.45;;
81801;SDS011;71199;52.490;5.448;2023-07-30T14:41:29;5.00;;;1.83;;
81801;SDS011;71199;52.490;5.448;2023-07-30T14:43:54;8.65;;;2.10;;